Time;durP1;ratioP1;P1;durP2;ratioP2;P2;SDS_P1;SDS_P2;PMS_P1;PMS_P2;Temp;Humidity;BMP_temperature;BMP_pressure;BME280_temperature;BME280_humidity;BME280_pressure;Samples;Min_cycle;Max_cycle;Signal;HPM_P1;HPM_P2
2022/03/16 00:01:15;;;;;;;61.33;16.48;;;13.00;88.10;;;;;;5121664;28;20055;-59
2022/03/16 00:03:40;;;;;;;59.17;14.20;;;12.90;88.10;;;;;;5102404;28;20102;-59
2022/03/16 00:06:06;;;;;;;47.33;13.93;;;12.90;88.00;;;;;;5119026;28;20070;-59
2022/03/16 00:08:31;;;;;;;56.78;13.57;;;12.90;88.00;;;;;;5118662;28;20114;-59
2022/03/16 00:10:58;;;;;;;50.50;14.45;;;12.90;87.90;;;;;;5118160;28;20031;-59
2022/03/16 00:13:23;;;;;;;65.25;15.75;;;12.90;87.90;;;;;;5102811;28;20027;-59
2022/03/16 00:15:49;;;;;;;51.65;18.27;;;12.90;87.90;;;;;;5122947;27;20376;-59
2022/03/16 00:18:14;;;;;;;48.25;15.43;;;12.80;87.80;;;;;;5118785;28;20160;-61
2022/03/16 00:20:40;;;;;;;45.83;13.45;;;12.80;87.80;;;;;;5086722;27;20045;-62
2022/03/16 00:23:05;;;;;;;58.63;15.45;;;12.80;87.90;;;;;;5089089;27;20406;-61
2022/03/16 00:25:31;;;;;;;52.03;15.82;;;12.80;87.90;;;;;;5123298;27;20035;-62
2022/03/16 00:27:56;;;;;;;58.63;15.23;;;12.80;87.80;;;;;;5123967;27;20103;-61
2022/03/16 00:30:22;;;;;;;53.67;13.73;;;12.80;87.80;;;;;;5124142;27;20138;-62
2022/03/16 00:32:47;;;;;;;45.78;12.82;;;12.70;87.60;;;;;;5122891;27;20466;-61
2022/03/16 00:35:13;;;;;;;54.15;14.50;;;12.70;87.60;;;;;;5123272;27;20131;-61
2022/03/16 00:37:39;;;;;;;48.90;13.70;;;12.70;87.60;;;;;;5126491;27;20028;-61
2022/03/16 00:40:05;;;;;;;43.88;13.55;;;12.70;87.80;;;;;;5123166;27;20034;-62
2022/03/16 00:42:30;;;;;;;33.55;12.63;;;12.70;87.80;;;;;;5121195;27;20034;-61
2022/03/16 00:44:56;;;;;;;36.13;13.77;;;12.60;88.30;;;;;;5105372;27;20035;-61
2022/03/16 00:47:21;;;;;;;44.58;13.35;;;12.60;87.80;;;;;;5123185;27;20490;-62
2022/03/16 00:49:47;;;;;;;38.78;13.20;;;12.60;87.80;;;;;;5122983;27;20042;-62
2022/03/16 00:52:12;;;;;;;34.47;11.50;;;12.60;87.70;;;;;;5123843;27;20098;-61
2022/03/16 00:54:38;;;;;;;34.53;11.93;;;12.60;87.70;;;;;;5123480;27;20051;-61
2022/03/16 00:57:03;;;;;;;41.95;12.32;;;12.60;87.70;;;;;;5103217;27;20423;-61
2022/03/16 00:59:29;;;;;;;36.90;13.00;;;12.50;87.70;;;;;;5123398;27;20505;-61
2022/03/16 01:01:54;;;;;;;36.25;12.73;;;12.50;87.60;;;;;;5121872;27;20364;-61
2022/03/16 01:04:20;;;;;;;34.25;11.15;;;12.50;87.70;;;;;;5123370;27;20061;-62
2022/03/16 01:06:45;;;;;;;28.90;11.68;;;12.50;87.70;;;;;;5123414;27;20452;-61
2022/03/16 01:09:11;;;;;;;34.40;11.80;;;12.50;87.80;;;;;;5103099;27;20118;-61
2022/03/16 01:11:37;;;;;;;42.53;12.48;;;12.50;87.70;;;;;;5124064;27;20113;-61
2022/03/16 01:14:02;;;;;;;33.42;11.50;;;12.40;87.70;;;;;;5103470;27;20415;-61
2022/03/16 01:16:28;;;;;;;27.95;10.38;;;12.40;87.60;;;;;;5122901;27;20364;-61
2022/03/16 01:18:53;;;;;;;25.95;10.85;;;12.40;87.60;;;;;;5123851;27;20042;-61
2022/03/16 01:21:19;;;;;;;28.23;11.52;;;12.40;87.60;;;;;;5122212;27;20106;-62
2022/03/16 01:23:44;;;;;;;37.50;11.60;;;12.40;87.70;;;;;;5087759;27;20036;-61
2022/03/16 01:26:10;;;;;;;29.65;11.18;;;12.40;88.30;;;;;;5123222;27;20118;-61
2022/03/16 01:28:35;;;;;;;32.08;10.38;;;12.30;87.60;;;;;;5102434;27;20566;-62
2022/03/16 01:31:01;;;;;;;32.15;10.55;;;12.30;87.60;;;;;;5123043;27;20555;-62
2022/03/16 01:33:28;;;;;;;28.88;10.25;;;12.30;87.60;;;;;;5103827;27;20031;-62
2022/03/16 01:35:53;;;;;;;24.05;10.65;;;12.30;87.60;;;;;;5122769;27;20035;-61
2022/03/16 01:38:19;;;;;;;23.98;9.80;;;12.30;87.60;;;;;;5084826;27;20398;-61
2022/03/16 01:40:45;;;;;;;26.15;9.85;;;12.30;87.60;;;;;;5103668;27;20084;-61
2022/03/16 01:43:10;;;;;;;33.85;9.75;;;12.30;87.60;;;;;;5123725;27;20103;-61
2022/03/16 01:45:36;;;;;;;28.08;9.77;;;12.30;87.60;;;;;;5106406;27;20548;-62
2022/03/16 01:48:01;;;;;;;26.15;9.48;;;12.20;87.60;;;;;;5103783;27;20163;-62
2022/03/16 01:50:27;;;;;;;22.85;9.40;;;12.20;87.60;;;;;;5104687;27;20118;-62
2022/03/16 01:52:52;;;;;;;23.65;9.00;;;12.20;87.60;;;;;;5121942;27;20163;-61
2022/03/16 01:55:18;;;;;;;20.35;9.75;;;12.20;87.70;;;;;;5122303;27;20435;-61
2022/03/16 01:57:47;;;;;;;17.88;8.50;;;12.20;87.70;;;;;;5103434;27;20026;-60
2022/03/16 02:00:13;;;;;;;23.98;9.38;;;12.20;87.80;;;;;;5085398;27;20055;-62
2022/03/16 02:02:39;;;;;;;24.15;10.40;;;12.20;87.80;;;;;;5079823;28;20085;-62
2022/03/16 02:05:05;;;;;;;28.67;14.32;;;12.20;87.80;;;;;;5099593;27;20035;-61
2022/03/16 02:07:30;;;;;;;23.13;12.48;;;12.10;87.70;;;;;;5103689;27;20094;-61
2022/03/16 02:10:00;;;;;;;21.08;11.30;;;12.10;87.90;;;;;;5124554;27;20038;-61
2022/03/16 02:12:25;;;;;;;20.88;10.90;;;12.10;87.90;;;;;;5088102;27;20462;-62
2022/03/16 02:14:51;;;;;;;20.52;10.52;;;12.10;87.90;;;;;;5122524;27;20141;-62
2022/03/16 02:17:16;;;;;;;21.20;9.63;;;12.10;87.90;;;;;;5086997;27;20035;-62
2022/03/16 02:19:42;;;;;;;20.83;9.88;;;12.00;87.90;;;;;;5103875;27;20485;-61
2022/03/16 02:22:09;;;;;;;24.67;10.27;;;12.00;87.90;;;;;;5121463;27;20127;-61
2022/03/16 02:24:35;;;;;;;19.45;9.40;;;12.00;87.90;;;;;;5105141;27;20019;-61
2022/03/16 02:27:00;;;;;;;20.85;9.57;;;12.00;87.90;;;;;;5104277;27;20023;-62
2022/03/16 02:29:26;;;;;;;20.25;9.27;;;12.00;87.80;;;;;;5122403;27;20032;-61
2022/03/16 02:31:51;;;;;;;21.88;9.75;;;12.00;88.00;;;;;;5120641;27;20547;-61
2022/03/16 02:34:17;;;;;;;22.27;9.05;;;12.00;88.00;;;;;;5103791;27;20024;-61
2022/03/16 02:36:42;;;;;;;15.90;8.70;;;12.00;88.00;;;;;;5116033;27;20371;-61
2022/03/16 02:39:08;;;;;;;20.40;8.02;;;12.00;88.00;;;;;;5102187;27;20043;-62
2022/03/16 02:41:33;;;;;;;25.60;8.23;;;12.00;88.20;;;;;;5102446;27;20035;-61
2022/03/16 02:43:59;;;;;;;17.73;8.70;;;12.00;88.20;;;;;;5101484;27;20047;-62
2022/03/16 02:46:25;;;;;;;15.73;9.30;;;11.90;88.40;;;;;;5120123;27;20054;-62
2022/03/16 02:48:50;;;;;;;18.70;10.30;;;11.90;88.50;;;;;;5122289;27;20019;-62
2022/03/16 02:51:16;;;;;;;19.58;10.85;;;11.90;88.60;;;;;;5122242;27;20130;-61
2022/03/16 02:53:41;;;;;;;22.25;10.00;;;11.90;88.70;;;;;;5117998;27;20062;-60
2022/03/16 02:56:07;;;;;;;17.75;9.10;;;11.90;88.70;;;;;;5100400;27;20043;-61
2022/03/16 02:58:33;;;;;;;18.17;9.20;;;11.80;88.60;;;;;;5120566;27;20030;-61
2022/03/16 03:00:58;;;;;;;16.27;8.73;;;11.80;88.60;;;;;;5103398;28;20023;-61
2022/03/16 03:03:24;;;;;;;16.95;8.88;;;11.80;88.60;;;;;;5123020;27;20083;-62
2022/03/16 03:05:51;;;;;;;18.02;8.15;;;11.80;88.60;;;;;;5121987;27;20147;-61
2022/03/16 03:08:16;;;;;;;19.20;8.88;;;11.80;88.50;;;;;;5084725;27;20569;-61
2022/03/16 03:10:42;;;;;;;18.08;9.00;;;11.80;88.60;;;;;;5121595;27;20016;-62
2022/03/16 03:13:07;;;;;;;14.88;8.13;;;11.80;88.50;;;;;;5100218;28;20073;-61
2022/03/16 03:15:33;;;;;;;14.25;8.95;;;11.80;88.50;;;;;;5122977;28;20039;-61
2022/03/16 03:17:58;;;;;;;15.65;7.82;;;11.80;88.40;;;;;;5120531;27;20076;-62
2022/03/16 03:20:24;;;;;;;18.75;8.45;;;11.80;88.40;;;;;;5120058;27;20043;-61
2022/03/16 03:22:49;;;;;;;12.40;7.57;;;11.70;88.30;;;;;;5118394;28;20055;-61
2022/03/16 03:25:15;;;;;;;18.90;9.18;;;11.70;88.30;;;;;;5118716;28;20031;-61
2022/03/16 03:27:41;;;;;;;22.73;9.18;;;11.70;88.20;;;;;;5101454;28;20852;-62
2022/03/16 03:30:07;;;;;;;19.10;8.95;;;11.70;88.30;;;;;;5114176;28;20052;-61
2022/03/16 03:32:33;;;;;;;19.73;9.85;;;11.70;88.20;;;;;;5079496;28;20035;-61
2022/03/16 03:34:58;;;;;;;14.73;8.60;;;11.70;88.30;;;;;;5100089;28;20044;-61
2022/03/16 03:37:30;;;;;;;15.32;8.77;;;11.60;88.20;;;;;;5098900;28;20031;-61
2022/03/16 03:39:56;;;;;;;14.40;8.20;;;11.70;88.30;;;;;;5099914;28;20038;-61
2022/03/16 03:42:22;;;;;;;12.23;8.15;;;11.60;88.20;;;;;;5081028;28;20459;-61
2022/03/16 03:44:47;;;;;;;14.63;7.95;;;11.60;88.20;;;;;;5099688;28;20114;-61
2022/03/16 03:47:13;;;;;;;15.48;9.07;;;11.60;88.30;;;;;;5079512;28;20444;-61
2022/03/16 03:49:39;;;;;;;11.02;7.53;;;11.60;88.20;;;;;;5079776;28;20024;-62
2022/03/16 03:52:05;;;;;;;18.13;8.25;;;11.60;88.30;;;;;;5098779;28;20047;-62
2022/03/16 03:54:31;;;;;;;17.65;8.30;;;11.50;88.30;;;;;;5081425;28;20068;-62
2022/03/16 03:56:56;;;;;;;13.15;8.15;;;11.60;88.30;;;;;;5084292;28;20045;-61
2022/03/16 03:59:23;;;;;;;11.50;8.30;;;11.60;88.20;;;;;;5103256;28;20039;-61
2022/03/16 04:01:48;;;;;;;11.02;7.88;;;11.50;88.20;;;;;;5100986;28;20032;-62
2022/03/16 04:04:14;;;;;;;14.93;8.45;;;11.50;88.20;;;;;;5085745;28;20023;-61
2022/03/16 04:06:39;;;;;;;11.35;8.02;;;11.50;88.20;;;;;;5099242;28;20042;-61
2022/03/16 04:09:05;;;;;;;11.30;7.85;;;11.50;88.10;;;;;;5103310;28;20035;-61
2022/03/16 04:11:31;;;;;;;14.30;7.63;;;11.50;88.10;;;;;;5084589;28;20031;-61
2022/03/16 04:13:56;;;;;;;13.88;7.55;;;11.40;88.00;;;;;;5100063;28;20406;-61
2022/03/16 04:16:22;;;;;;;11.48;8.05;;;11.50;88.10;;;;;;5083578;28;20019;-62
2022/03/16 04:18:47;;;;;;;15.75;8.45;;;11.50;88.10;;;;;;5083704;28;20032;-61
2022/03/16 04:21:13;;;;;;;11.57;8.30;;;11.40;88.20;;;;;;5082785;28;20023;-62
2022/03/16 04:23:38;;;;;;;14.43;7.63;;;11.40;88.30;;;;;;5083074;28;20110;-62
2022/03/16 04:26:04;;;;;;;12.30;7.60;;;11.40;88.20;;;;;;5083750;28;20394;-60
2022/03/16 04:28:29;;;;;;;13.18;7.32;;;11.40;88.30;;;;;;5099958;28;20064;-62
2022/03/16 04:30:55;;;;;;;15.57;7.80;;;11.40;88.30;;;;;;5098632;27;20268;-61
2022/03/16 04:33:20;;;;;;;12.88;8.02;;;11.40;88.40;;;;;;5121359;27;20101;-62
2022/03/16 04:35:46;;;;;;;15.73;7.25;;;11.30;88.30;;;;;;5123755;27;20023;-62
2022/03/16 04:38:11;;;;;;;12.52;7.53;;;11.30;88.40;;;;;;5119773;27;20143;-62
2022/03/16 04:40:37;;;;;;;12.90;7.40;;;11.30;88.40;;;;;;5103340;27;20038;-61
2022/03/16 04:43:02;;;;;;;12.95;7.60;;;11.40;88.40;;;;;;5122051;27;20024;-60
2022/03/16 04:45:28;;;;;;;14.25;7.38;;;11.30;88.30;;;;;;5101983;27;20459;-62
2022/03/16 04:47:54;;;;;;;18.08;8.02;;;11.30;88.30;;;;;;5079172;28;20477;-61
2022/03/16 04:50:19;;;;;;;14.23;7.90;;;11.30;88.30;;;;;;5061501;27;20032;-61
2022/03/16 04:52:45;;;;;;;10.07;7.35;;;11.30;88.30;;;;;;5121199;27;20035;-61
2022/03/16 04:55:11;;;;;;;13.75;7.80;;;11.30;88.30;;;;;;5122238;27;20024;-61
2022/03/16 04:57:36;;;;;;;11.57;7.30;;;11.30;88.30;;;;;;5086127;27;20419;-61
2022/03/16 05:00:03;;;;;;;12.98;7.00;;;11.30;88.40;;;;;;5124352;27;20531;-61
2022/03/16 05:02:28;;;;;;;11.45;7.22;;;11.30;88.40;;;;;;5123988;27;20019;-62
2022/03/16 05:04:54;;;;;;;16.25;7.72;;;11.30;88.40;;;;;;5123780;27;20031;-61
2022/03/16 05:07:19;;;;;;;12.27;7.97;;;11.20;88.40;;;;;;5120753;27;20050;-61
2022/03/16 05:09:45;;;;;;;9.60;7.30;;;11.30;88.40;;;;;;5121258;27;20470;-61
2022/03/16 05:12:10;;;;;;;12.38;7.10;;;11.30;88.40;;;;;;5121130;27;20035;-61
2022/03/16 05:14:36;;;;;;;12.73;7.20;;;11.20;88.50;;;;;;5120607;27;20031;-61
2022/03/16 05:17:01;;;;;;;12.68;7.57;;;11.20;88.50;;;;;;5102628;27;20027;-61
2022/03/16 05:19:28;;;;;;;12.07;7.25;;;11.20;88.50;;;;;;5100883;27;20040;-62
2022/03/16 05:21:53;;;;;;;12.27;7.15;;;11.20;88.50;;;;;;5117365;27;20015;-61
2022/03/16 05:24:22;;;;;;;27.30;8.43;;;11.20;88.40;;;;;;5120756;27;20612;-61
2022/03/16 05:26:48;;;;;;;38.17;9.82;;;11.20;88.30;;;;;;5099923;27;20507;-61
2022/03/16 05:29:13;;;;;;;44.25;9.68;;;11.20;88.40;;;;;;5119855;27;20045;-61
2022/03/16 05:31:39;;;;;;;36.33;8.60;;;10.90;88.30;;;;;;5080834;28;20052;-61
2022/03/16 05:34:04;;;;;;;30.02;8.82;;;11.20;88.50;;;;;;5100380;28;20686;-61
2022/03/16 05:36:30;;;;;;;26.80;8.65;;;11.20;88.50;;;;;;5079580;28;20115;-61
2022/03/16 05:38:55;;;;;;;34.22;7.50;;;11.20;88.50;;;;;;5077545;27;20054;-61
2022/03/16 05:41:21;;;;;;;16.05;6.93;;;11.10;88.50;;;;;;5102562;27;20099;-62
2022/03/16 05:43:46;;;;;;;30.02;7.85;;;11.10;88.40;;;;;;5099421;27;20179;-61
2022/03/16 05:46:12;;;;;;;29.23;8.15;;;11.10;88.40;;;;;;5104500;27;20093;-62
2022/03/16 05:48:37;;;;;;;22.58;7.95;;;11.10;88.40;;;;;;5088753;28;20027;-61
2022/03/16 05:51:03;;;;;;;28.38;7.85;;;11.10;88.50;;;;;;5079000;28;20047;-61
2022/03/16 05:53:28;;;;;;;22.58;8.48;;;11.10;88.70;;;;;;5101017;28;20052;-62
2022/03/16 05:55:54;;;;;;;29.85;8.45;;;11.10;88.70;;;;;;5101040;28;20126;-61
2022/03/16 05:58:21;;;;;;;20.38;8.60;;;11.10;88.70;;;;;;5099510;28;20478;-61
2022/03/16 06:00:46;;;;;;;21.20;8.38;;;11.00;88.70;;;;;;5104074;27;20318;-61
2022/03/16 06:03:12;;;;;;;27.30;7.90;;;11.00;88.70;;;;;;5105718;27;20177;-62
2022/03/16 06:05:37;;;;;;;19.05;8.13;;;11.00;88.80;;;;;;5085718;28;20031;-61
2022/03/16 06:08:03;;;;;;;20.25;8.80;;;11.00;89.00;;;;;;5100146;28;20046;-61
2022/03/16 06:10:29;;;;;;;20.33;7.68;;;11.00;88.90;;;;;;5072536;27;20231;-62
2022/03/16 06:12:59;;;;;;;22.27;7.75;;;11.00;89.00;;;;;;5100736;27;20059;-61
2022/03/16 06:15:25;;;;;;;19.55;8.27;;;11.00;89.00;;;;;;5079667;28;20364;-62
2022/03/16 06:18:00;;;;;;;16.42;7.57;;;10.90;88.90;;;;;;5098301;28;20015;-62
2022/03/16 06:20:26;;;;;;;21.23;8.30;;;10.90;88.90;;;;;;5100148;28;20035;-61
2022/03/16 06:22:51;;;;;;;16.63;7.60;;;10.90;88.90;;;;;;5101354;28;21586;-62
2022/03/16 06:25:17;;;;;;;18.50;8.05;;;10.90;89.00;;;;;;5101320;27;20384;-61
2022/03/16 06:27:42;;;;;;;23.05;8.15;;;11.00;89.00;;;;;;5104492;27;20066;-62
2022/03/16 06:30:08;;;;;;;14.77;7.55;;;10.90;89.10;;;;;;5099077;28;20071;-61
2022/03/16 06:32:34;;;;;;;18.90;7.93;;;10.90;89.20;;;;;;5087184;27;20027;-61
2022/03/16 06:34:59;;;;;;;18.40;8.52;;;10.90;89.90;;;;;;5105199;27;20108;-62
2022/03/16 06:37:25;;;;;;;16.63;8.18;;;10.90;89.40;;;;;;5101898;27;20105;-61
2022/03/16 06:39:50;;;;;;;19.08;7.47;;;10.90;89.30;;;;;;5104510;27;20110;-62
2022/03/16 06:42:16;;;;;;;15.20;8.27;;;10.90;89.40;;;;;;5104385;28;20051;-61
2022/03/16 06:44:41;;;;;;;18.15;9.07;;;10.90;89.50;;;;;;5108932;27;20065;-62
2022/03/16 06:47:07;;;;;;;15.80;8.30;;;10.90;89.70;;;;;;5102910;27;20050;-62
2022/03/16 06:49:32;;;;;;;20.50;8.68;;;10.90;89.80;;;;;;5102552;27;20050;-60
2022/03/16 06:51:58;;;;;;;16.08;8.38;;;10.90;89.90;;;;;;5085790;28;20506;-61
2022/03/16 06:54:23;;;;;;;19.98;8.52;;;10.90;89.90;;;;;;5100945;27;20451;-61
2022/03/16 06:56:49;;;;;;;12.85;8.85;;;10.90;89.80;;;;;;5084983;27;20035;-61
2022/03/16 06:59:15;;;;;;;16.10;8.82;;;10.90;89.70;;;;;;5069233;28;20343;-61
2022/03/16 07:01:40;;;;;;;15.68;9.10;;;10.90;89.90;;;;;;5100587;28;20027;-61
2022/03/16 07:04:06;;;;;;;18.80;9.07;;;10.90;89.90;;;;;;5101574;27;20525;-61
2022/03/16 07:06:31;;;;;;;18.80;8.98;;;10.90;89.80;;;;;;5061865;28;20064;-62
2022/03/16 07:08:57;;;;;;;13.20;8.77;;;10.90;89.90;;;;;;5104350;27;20048;-61
2022/03/16 07:11:22;;;;;;;23.33;8.82;;;10.90;89.90;;;;;;5075536;28;20382;-61
2022/03/16 07:16:33;;;;;;;15.00;9.02;;;10.90;90.00;;;;;;5103541;28;20082;-62
2022/03/16 07:18:59;;;;;;;12.77;8.75;;;10.90;90.00;;;;;;5059209;28;20490;-62
2022/03/16 07:21:24;;;;;;;17.52;9.00;;;10.90;90.00;;;;;;5079325;28;20019;-61
2022/03/16 07:23:50;;;;;;;19.58;9.38;;;10.90;90.00;;;;;;5080758;28;20051;-60
2022/03/16 07:26:15;;;;;;;13.00;9.07;;;10.90;90.00;;;;;;5098297;28;20434;-61
2022/03/16 07:28:41;;;;;;;16.42;9.18;;;10.90;90.00;;;;;;5104301;28;20499;-61
2022/03/16 07:31:08;;;;;;;17.65;8.95;;;10.90;90.10;;;;;;5114669;27;20971;-61
2022/03/16 07:33:34;;;;;;;17.20;8.65;;;10.90;90.10;;;;;;5069225;27;20479;-62
2022/03/16 07:35:59;;;;;;;14.75;8.45;;;10.90;90.00;;;;;;5101229;27;20043;-61
2022/03/16 07:38:25;;;;;;;13.82;8.70;;;10.90;90.00;;;;;;5102474;27;20035;-61
2022/03/16 07:40:50;;;;;;;20.02;9.45;;;10.90;90.00;;;;;;5078860;27;20039;-62
2022/03/16 07:43:16;;;;;;;13.85;8.50;;;10.90;90.00;;;;;;5083019;27;20052;-62
2022/03/16 07:45:41;;;;;;;14.85;8.40;;;10.90;90.00;;;;;;5108034;27;20047;-61
2022/03/16 07:48:07;;;;;;;19.63;9.27;;;11.00;90.00;;;;;;5103380;27;20047;-61
2022/03/16 07:50:33;;;;;;;15.77;9.45;;;11.00;89.90;;;;;;5091843;27;20078;-61
2022/03/16 07:52:59;;;;;;;16.77;9.10;;;11.00;89.90;;;;;;5061716;27;20201;-61
2022/03/16 07:55:25;;;;;;;19.33;9.95;;;11.00;89.90;;;;;;5086602;27;20202;-61
2022/03/16 07:57:52;;;;;;;16.80;8.88;;;11.00;89.90;;;;;;5078923;27;20398;-62
2022/03/16 08:00:18;;;;;;;21.35;9.50;;;11.00;89.90;;;;;;5065495;27;20119;-62
2022/03/16 08:02:44;;;;;;;16.77;9.02;;;11.00;89.90;;;;;;5060463;27;20047;-62
2022/03/16 08:05:09;;;;;;;19.33;9.85;;;11.00;89.90;;;;;;5095983;27;20027;-62
2022/03/16 08:07:36;;;;;;;21.98;9.52;;;11.00;89.80;;;;;;5084872;27;20039;-61
2022/03/16 08:10:01;;;;;;;18.20;10.25;;;11.10;89.90;;;;;;5087164;27;20035;-62
2022/03/16 08:12:27;;;;;;;22.90;9.63;;;11.10;89.70;;;;;;5077663;27;20392;-61
2022/03/16 08:14:53;;;;;;;19.10;9.88;;;11.10;89.60;;;;;;5076314;27;20036;-61
2022/03/16 08:17:18;;;;;;;27.80;10.63;;;11.10;89.60;;;;;;5089450;27;20039;-61
2022/03/16 08:19:44;;;;;;;34.17;11.57;;;11.10;89.60;;;;;;5057720;27;20554;-62
2022/03/16 08:22:09;;;;;;;48.75;11.98;;;11.20;89.80;;;;;;5078066;27;20082;-62
2022/03/16 08:24:35;;;;;;;40.15;11.23;;;11.20;89.80;;;;;;5066678;28;20221;-62
2022/03/16 08:27:00;;;;;;;33.42;10.63;;;11.20;89.70;;;;;;5087219;27;20176;-62
2022/03/16 08:29:26;;;;;;;31.58;11.40;;;11.20;89.50;;;;;;5053178;28;20541;-61
2022/03/16 08:31:52;;;;;;;37.33;11.90;;;11.30;89.50;;;;;;5089466;27;20118;-61
2022/03/16 08:34:18;;;;;;;48.90;11.10;;;11.30;89.30;;;;;;5066431;28;20055;-61
2022/03/16 08:36:44;;;;;;;49.22;11.52;;;11.30;89.30;;;;;;5090803;27;20080;-62
2022/03/16 08:39:09;;;;;;;49.70;12.98;;;11.30;89.30;;;;;;5078031;27;20043;-61
2022/03/16 08:41:35;;;;;;;56.78;12.45;;;11.30;89.80;;;;;;5083519;27;20047;-61
2022/03/16 08:44:02;;;;;;;38.42;11.48;;;11.30;89.60;;;;;;5086843;27;20035;-61
2022/03/16 08:46:28;;;;;;;49.97;12.93;;;11.40;89.40;;;;;;5086379;27;20122;-61
2022/03/16 08:48:53;;;;;;;112.40;16.63;;;11.40;89.40;;;;;;5065002;28;20028;-62
2022/03/16 08:51:19;;;;;;;75.38;13.70;;;11.50;89.70;;;;;;5072374;28;20043;-62
2022/03/16 08:53:45;;;;;;;73.20;14.65;;;11.50;89.40;;;;;;5086924;27;20440;-61
2022/03/16 08:56:11;;;;;;;77.10;14.65;;;11.60;89.20;;;;;;5093402;27;20042;-61
2022/03/16 08:58:37;;;;;;;99.07;17.73;;;11.50;89.00;;;;;;5084493;27;20111;-61
2022/03/16 09:01:02;;;;;;;77.10;15.25;;;11.60;89.40;;;;;;5058410;28;20031;-61
2022/03/16 09:03:28;;;;;;;90.55;15.80;;;11.60;89.30;;;;;;5085393;27;20066;-61
2022/03/16 09:05:53;;;;;;;93.43;15.77;;;11.60;89.30;;;;;;5068459;27;20360;-61
2022/03/16 09:08:19;;;;;;;119.97;16.50;;;11.60;89.70;;;;;;5067548;28;20493;-61
2022/03/16 09:10:45;;;;;;;112.65;19.13;;;11.70;90.00;;;;;;5069769;27;20470;-62
2022/03/16 09:13:10;;;;;;;107.95;17.77;;;11.70;90.10;;;;;;5085288;27;20463;-62
2022/03/16 09:15:36;;;;;;;96.50;17.67;;;11.70;90.10;;;;;;5069719;27;20066;-62
2022/03/16 09:18:02;;;;;;;92.85;16.67;;;11.70;90.20;;;;;;5067637;27;20060;-61
2022/03/16 09:20:28;;;;;;;93.20;15.65;;;11.80;90.20;;;;;;5091071;27;20093;-61
2022/03/16 09:22:53;;;;;;;82.28;16.40;;;11.80;90.00;;;;;;5093024;27;20573;-61
2022/03/16 09:25:20;;;;;;;99.30;18.00;;;11.80;89.50;;;;;;5081407;27;20042;-62
2022/03/16 09:27:45;;;;;;;105.78;17.45;;;11.80;89.50;;;;;;5065377;28;20043;-61
2022/03/16 09:30:11;;;;;;;105.05;18.65;;;11.90;90.00;;;;;;5075977;27;20066;-61
2022/03/16 09:32:38;;;;;;;89.90;17.92;;;11.90;90.10;;;;;;5104726;27;20042;-62
2022/03/16 09:35:04;;;;;;;103.05;17.63;;;12.00;90.00;;;;;;5080264;27;20168;-61
2022/03/16 09:37:29;;;;;;;96.47;16.75;;;12.00;89.70;;;;;;5101793;27;20137;-62
2022/03/16 09:39:55;;;;;;;81.70;17.40;;;11.90;89.50;;;;;;5067395;27;20031;-61
2022/03/16 09:42:20;;;;;;;81.72;15.63;;;12.00;89.70;;;;;;5100025;27;20110;-61
2022/03/16 09:44:46;;;;;;;78.57;15.23;;;12.00;89.60;;;;;;5110305;27;20085;-61
2022/03/16 09:47:12;;;;;;;85.82;17.40;;;12.00;89.60;;;;;;5102407;27;20039;-62
2022/03/16 09:49:38;;;;;;;87.40;16.33;;;12.10;89.80;;;;;;5081097;27;20119;-61
2022/03/16 09:52:04;;;;;;;74.13;16.73;;;12.10;89.90;;;;;;5094371;27;20163;-62
2022/03/16 09:54:30;;;;;;;91.93;16.50;;;12.20;90.00;;;;;;5099429;27;20128;-62
2022/03/16 09:56:56;;;;;;;87.65;18.05;;;12.20;89.90;;;;;;5108422;27;20057;-61
2022/03/16 09:59:21;;;;;;;72.22;15.32;;;12.20;89.70;;;;;;5084278;27;20035;-62
2022/03/16 10:01:47;;;;;;;78.50;15.80;;;12.30;89.50;;;;;;5084690;27;20051;-61
2022/03/16 10:04:13;;;;;;;92.55;16.88;;;12.30;89.50;;;;;;5067917;27;20297;-62
2022/03/16 10:06:39;;;;;;;86.30;15.30;;;12.40;89.50;;;;;;5079586;27;20061;-62
2022/03/16 10:15:00;;;;;;;81.50;17.35;;;12.50;89.00;;;;;;5102313;27;20054;-61
2022/03/16 10:17:44;;;;;;;81.50;16.55;;;12.50;89.00;;;;;;5119365;27;20166;-61
2022/03/16 10:20:23;;;;;;;92.07;17.40;;;12.60;89.10;;;;;;5120662;27;20102;-62
2022/03/16 10:23:05;;;;;;;63.95;16.65;;;12.60;89.00;;;;;;5098310;27;20027;-61
2022/03/16 10:25:33;;;;;;;84.90;16.13;;;12.70;88.90;;;;;;5111868;27;20043;-62
2022/03/16 10:28:17;;;;;;;58.38;13.80;;;12.70;88.60;;;;;;5078479;27;20487;-61
2022/03/16 10:30:56;;;;;;;66.85;15.00;;;12.80;88.50;;;;;;5118498;27;20051;-62
2022/03/16 10:33:32;;;;;;;59.95;13.13;;;12.80;88.60;;;;;;5092984;27;20118;-62
2022/03/16 10:36:08;;;;;;;60.38;13.23;;;12.80;89.00;;;;;;5083429;27;20134;-62
2022/03/16 10:38:47;;;;;;;59.05;13.82;;;12.90;88.20;;;;;;5077851;28;20127;-60
2022/03/16 10:46:48;;;;;;;61.55;13.68;;;13.00;88.00;;;;;;5085768;27;20398;-61
2022/03/16 10:49:19;;;;;;;39.03;11.50;;;13.10;87.90;;;;;;5074949;28;20044;-61
2022/03/16 10:51:45;;;;;;;37.92;12.07;;;13.10;87.80;;;;;;5073205;28;20552;-62
2022/03/16 10:54:11;;;;;;;44.97;11.50;;;13.20;87.90;;;;;;5097953;27;20036;-63
2022/03/16 10:56:36;;;;;;;50.50;12.23;;;13.20;87.80;;;;;;5096507;27;20436;-61
2022/03/16 10:59:02;;;;;;;35.47;12.10;;;13.20;87.70;;;;;;5090702;28;20145;-62
2022/03/16 11:01:27;;;;;;;48.25;11.13;;;13.30;87.70;;;;;;5088048;27;20049;-61
2022/03/16 11:03:55;;;;;;;45.10;11.20;;;13.40;87.60;;;;;;5056316;27;20561;-61
2022/03/16 11:06:21;;;;;;;58.80;12.20;;;13.40;87.50;;;;;;5064060;28;20154;-62
2022/03/16 11:08:50;;;;;;;59.88;13.32;;;13.50;87.50;;;;;;5104097;27;20108;-62
2022/03/16 11:14:01;;;;;;;63.83;12.95;;;13.60;87.60;;;;;;5081180;28;20039;-62
2022/03/16 11:16:27;;;;;;;68.07;14.35;;;13.60;87.70;;;;;;5078585;28;20040;-60
2022/03/16 11:18:52;;;;;;;64.32;13.32;;;13.70;87.90;;;;;;5084653;27;20075;-63
2022/03/16 11:21:44;;;;;;;68.22;11.65;;;13.70;87.70;;;;;;5101873;27;20062;-61
2022/03/16 11:24:17;;;;;;;57.22;13.10;;;13.80;87.90;;;;;;5091784;27;20051;-61
2022/03/16 11:27:09;;;;;;;100.95;16.60;;;13.80;87.50;;;;;;5094909;28;20061;-60
2022/03/16 11:29:44;;;;;;;108.45;17.33;;;13.90;87.40;;;;;;5082723;28;20059;-62
2022/03/16 11:32:17;;;;;;;68.80;13.63;;;13.90;87.30;;;;;;5091505;28;20047;-61
2022/03/16 11:34:59;;;;;;;71.53;13.95;;;14.00;87.30;;;;;;5096314;28;20138;-61
2022/03/16 11:37:36;;;;;;;65.97;13.60;;;14.00;87.10;;;;;;5091750;28;20032;-62
2022/03/16 11:40:10;;;;;;;68.30;13.60;;;14.10;87.20;;;;;;5115326;28;20027;-62
2022/03/16 11:42:39;;;;;;;83.00;13.30;;;14.20;87.30;;;;;;5112269;27;20050;-61
2022/03/16 11:45:43;;;;;;;81.43;13.15;;;14.20;87.20;;;;;;5102090;27;20581;-62
2022/03/16 11:48:34;;;;;;;116.82;16.83;;;14.20;87.20;;;;;;5064361;27;20076;-62
2022/03/16 11:51:06;;;;;;;107.88;15.80;;;14.30;87.30;;;;;;5104476;27;20030;-61
2022/03/16 11:53:51;;;;;;;97.68;16.17;;;14.40;87.40;;;;;;5092887;28;20038;-62
2022/03/16 11:56:23;;;;;;;103.25;15.50;;;14.40;87.20;;;;;;5113536;27;20030;-62
2022/03/16 11:58:52;;;;;;;82.43;15.90;;;14.40;87.20;;;;;;5088506;27;20039;-62
2022/03/16 12:01:31;;;;;;;84.75;14.95;;;14.50;87.80;;;;;;5112822;27;20464;-62
2022/03/16 12:04:08;;;;;;;79.10;12.77;;;14.50;87.20;;;;;;5107403;27;20426;-60
2022/03/16 12:07:11;;;;;;;82.43;15.60;;;14.60;87.20;;;;;;5109827;27;20111;-62
2022/03/16 12:09:52;;;;;;;81.57;16.35;;;14.70;87.10;;;;;;5089444;27;20134;-61
2022/03/16 12:15:19;;;;;;;71.18;14.60;;;14.80;86.80;;;;;;5081266;27;20107;-62
2022/03/16 12:17:57;;;;;;;93.47;16.40;;;14.80;86.90;;;;;;5115622;27;20143;-62
2022/03/16 12:20:34;;;;;;;112.15;16.73;;;14.90;86.80;;;;;;5110819;27;20027;-61
2022/03/16 12:23:01;;;;;;;123.20;17.63;;;14.90;86.70;;;;;;5110507;27;20051;-61
2022/03/16 12:25:30;;;;;;;93.93;17.52;;;15.00;86.80;;;;;;5092336;27;20023;-62
2022/03/16 12:30:59;;;;;;;82.72;16.48;;;15.00;86.80;;;;;;5079279;28;20050;-62
2022/03/16 12:33:26;;;;;;;77.60;17.10;;;15.10;86.90;;;;;;5070478;28;20036;-63
2022/03/16 12:35:53;;;;;;;100.97;17.35;;;15.10;86.70;;;;;;5051664;28;20138;-62
2022/03/16 12:38:20;;;;;;;82.75;16.92;;;15.20;86.70;;;;;;5080576;28;20613;-62
2022/03/16 12:43:30;;;;;;;110.15;18.92;;;15.30;86.50;;;;;;5080241;27;20093;-62
2022/03/16 12:46:11;;;;;;;106.82;17.73;;;15.30;86.60;;;;;;5092407;27;20512;-61
2022/03/16 12:48:37;;;;;;;106.18;18.15;;;15.40;86.30;;;;;;5076872;28;20031;-62
2022/03/16 12:51:03;;;;;;;107.00;19.33;;;15.40;86.40;;;;;;5092025;27;20039;-62
2022/03/16 12:53:45;;;;;;;102.85;18.65;;;15.40;86.30;;;;;;5096171;28;20384;-61
2022/03/16 12:56:17;;;;;;;121.38;19.05;;;15.50;86.30;;;;;;5077938;28;20377;-62